sensor_id;sensor_type;location;lat;lon;timestamp;P1;durP1;ratioP1;P2;durP2;ratioP2
11338;SDS011;5724;42.684;23.252;2023-02-25T00:00:41;35.50;;;23.23;;
11338;SDS011;5724;42.684;23.252;2023-02-25T00:03:08;34.83;;;22.90;;
11338;SDS011;5724;42.684;23.252;2023-02-25T00:05:38;32.37;;;23.83;;
11338;SDS011;5724;42.684;23.252;2023-02-25T00:08:04;31.63;;;23.10;;
11338;SDS011;5724;42.684;23.252;2023-02-25T00:10:30;31.67;;;23.60;;
11338;SDS011;5724;42.684;23.252;2023-02-25T00:12:55;31.60;;;22.87;;
11338;SDS011;5724;42.684;23.252;2023-02-25T00:15:20;31.60;;;21.73;;
11338;SDS011;5724;42.684;23.252;2023-02-25T00:17:46;31.20;;;22.40;;
11338;SDS011;5724;42.684;23.252;2023-02-25T00:20:14;29.23;;;22.03;;
11338;SDS011;5724;42.684;23.252;2023-02-25T00:22:47;29.53;;;21.50;;
11338;SDS011;5724;42.684;23.252;2023-02-25T00:25:13;29.13;;;20.40;;
11338;SDS011;5724;42.684;23.252;2023-02-25T00:27:41;27.63;;;20.83;;
11338;SDS011;5724;42.684;23.252;2023-02-25T00:30:07;27.33;;;21.07;;
11338;SDS011;5724;42.684;23.252;2023-02-25T00:32:35;24.40;;;20.07;;
11338;SDS011;5724;42.684;23.252;2023-02-25T00:35:01;30.63;;;21.00;;
11338;SDS011;5724;42.684;23.252;2023-02-25T00:37:27;28.23;;;21.30;;
11338;SDS011;5724;42.684;23.252;2023-02-25T00:39:53;30.73;;;22.27;;
11338;SDS011;5724;42.684;23.252;2023-02-25T00:42:18;30.27;;;22.33;;
11338;SDS011;5724;42.684;23.252;2023-02-25T00:44:45;33.73;;;23.67;;
11338;SDS011;5724;42.684;23.252;2023-02-25T00:47:12;30.57;;;23.90;;
11338;SDS011;5724;42.684;23.252;2023-02-25T00:49:38;34.30;;;24.00;;
11338;SDS011;5724;42.684;23.252;2023-02-25T00:52:04;30.67;;;22.83;;
11338;SDS011;5724;42.684;23.252;2023-02-25T00:54:31;31.67;;;22.57;;
11338;SDS011;5724;42.684;23.252;2023-02-25T00:56:57;33.57;;;24.30;;
11338;SDS011;5724;42.684;23.252;2023-02-25T00:59:23;29.47;;;22.90;;
11338;SDS011;5724;42.684;23.252;2023-02-25T01:01:48;33.00;;;23.93;;
11338;SDS011;5724;42.684;23.252;2023-02-25T01:04:14;31.10;;;22.47;;
11338;SDS011;5724;42.684;23.252;2023-02-25T01:06:39;34.03;;;23.13;;
11338;SDS011;5724;42.684;23.252;2023-02-25T01:09:06;33.13;;;24.27;;
11338;SDS011;5724;42.684;23.252;2023-02-25T01:11:38;33.90;;;25.00;;
11338;SDS011;5724;42.684;23.252;2023-02-25T01:14:07;35.30;;;25.60;;
11338;SDS011;5724;42.684;23.252;2023-02-25T01:16:36;36.50;;;24.93;;
11338;SDS011;5724;42.684;23.252;2023-02-25T01:19:03;33.87;;;24.07;;
11338;SDS011;5724;42.684;23.252;2023-02-25T01:21:32;31.03;;;23.10;;
11338;SDS011;5724;42.684;23.252;2023-02-25T01:24:18;32.13;;;22.20;;
11338;SDS011;5724;42.684;23.252;2023-02-25T01:26:46;31.70;;;21.80;;
11338;SDS011;5724;42.684;23.252;2023-02-25T01:29:13;29.87;;;22.60;;
11338;SDS011;5724;42.684;23.252;2023-02-25T01:31:40;29.93;;;22.40;;
11338;SDS011;5724;42.684;23.252;2023-02-25T01:34:07;27.40;;;20.63;;
11338;SDS011;5724;42.684;23.252;2023-02-25T01:36:36;29.30;;;21.47;;
11338;SDS011;5724;42.684;23.252;2023-02-25T01:39:02;27.53;;;22.00;;
11338;SDS011;5724;42.684;23.252;2023-02-25T01:41:28;28.97;;;21.30;;
11338;SDS011;5724;42.684;23.252;2023-02-25T01:46:28;33.03;;;21.23;;
11338;SDS011;5724;42.684;23.252;2023-02-25T01:48:54;28.07;;;22.10;;
11338;SDS011;5724;42.684;23.252;2023-02-25T01:51:21;29.37;;;21.63;;
11338;SDS011;5724;42.684;23.252;2023-02-25T01:53:51;33.40;;;21.60;;
11338;SDS011;5724;42.684;23.252;2023-02-25T01:56:20;30.10;;;20.97;;
11338;SDS011;5724;42.684;23.252;2023-02-25T01:58:49;37.10;;;23.07;;
11338;SDS011;5724;42.684;23.252;2023-02-25T02:01:17;28.27;;;21.03;;
11338;SDS011;5724;42.684;23.252;2023-02-25T02:03:45;25.47;;;19.90;;
11338;SDS011;5724;42.684;23.252;2023-02-25T02:06:14;34.73;;;21.40;;
11338;SDS011;5724;42.684;23.252;2023-02-25T02:08:43;27.70;;;20.33;;
11338;SDS011;5724;42.684;23.252;2023-02-25T02:11:10;28.70;;;21.10;;
11338;SDS011;5724;42.684;23.252;2023-02-25T02:13:37;31.10;;;20.57;;
11338;SDS011;5724;42.684;23.252;2023-02-25T02:18:36;32.37;;;20.00;;
11338;SDS011;5724;42.684;23.252;2023-02-25T02:24:11;32.13;;;20.17;;
11338;SDS011;5724;42.684;23.252;2023-02-25T02:26:44;23.77;;;19.83;;
11338;SDS011;5724;42.684;23.252;2023-02-25T02:40:06;28.57;;;19.40;;
11338;SDS011;5724;42.684;23.252;2023-02-25T02:51:29;26.20;;;18.50;;
11338;SDS011;5724;42.684;23.252;2023-02-25T02:53:59;31.17;;;20.90;;
11338;SDS011;5724;42.684;23.252;2023-02-25T02:56:27;33.60;;;19.40;;
11338;SDS011;5724;42.684;23.252;2023-02-25T02:58:58;25.07;;;18.67;;
11338;SDS011;5724;42.684;23.252;2023-02-25T03:01:32;23.40;;;18.27;;
11338;SDS011;5724;42.684;23.252;2023-02-25T03:04:02;30.07;;;19.37;;
11338;SDS011;5724;42.684;23.252;2023-02-25T03:06:32;23.30;;;18.07;;
11338;SDS011;5724;42.684;23.252;2023-02-25T03:09:11;21.67;;;18.93;;
11338;SDS011;5724;42.684;23.252;2023-02-25T03:11:38;28.30;;;18.70;;
11338;SDS011;5724;42.684;23.252;2023-02-25T03:14:04;25.53;;;17.90;;
11338;SDS011;5724;42.684;23.252;2023-02-25T03:16:34;25.83;;;19.27;;
11338;SDS011;5724;42.684;23.252;2023-02-25T03:19:22;23.93;;;19.27;;
11338;SDS011;5724;42.684;23.252;2023-02-25T03:22:31;24.37;;;17.47;;
11338;SDS011;5724;42.684;23.252;2023-02-25T03:25:12;26.67;;;18.87;;
11338;SDS011;5724;42.684;23.252;2023-02-25T03:27:42;25.63;;;18.70;;
11338;SDS011;5724;42.684;23.252;2023-02-25T03:33:02;25.57;;;18.57;;
11338;SDS011;5724;42.684;23.252;2023-02-25T03:35:32;24.87;;;18.77;;
11338;SDS011;5724;42.684;23.252;2023-02-25T03:38:01;23.67;;;18.17;;
11338;SDS011;5724;42.684;23.252;2023-02-25T03:40:32;24.67;;;18.53;;
11338;SDS011;5724;42.684;23.252;2023-02-25T03:43:44;24.53;;;18.47;;
11338;SDS011;5724;42.684;23.252;2023-02-25T03:45:49;27.70;;;18.87;;
11338;SDS011;5724;42.684;23.252;2023-02-25T03:48:15;26.63;;;19.00;;
11338;SDS011;5724;42.684;23.252;2023-02-25T03:50:46;29.47;;;20.30;;
11338;SDS011;5724;42.684;23.252;2023-02-25T03:53:16;25.17;;;18.13;;
11338;SDS011;5724;42.684;23.252;2023-02-25T03:55:42;24.53;;;18.10;;
11338;SDS011;5724;42.684;23.252;2023-02-25T03:58:07;34.10;;;18.40;;
11338;SDS011;5724;42.684;23.252;2023-02-25T04:00:34;24.40;;;18.23;;
11338;SDS011;5724;42.684;23.252;2023-02-25T04:03:01;20.83;;;18.30;;
11338;SDS011;5724;42.684;23.252;2023-02-25T04:05:28;22.10;;;18.67;;
11338;SDS011;5724;42.684;23.252;2023-02-25T04:07:54;23.73;;;17.47;;
11338;SDS011;5724;42.684;23.252;2023-02-25T04:10:23;25.43;;;18.60;;
11338;SDS011;5724;42.684;23.252;2023-02-25T04:12:49;23.33;;;18.20;;
11338;SDS011;5724;42.684;23.252;2023-02-25T04:15:15;24.73;;;17.60;;
11338;SDS011;5724;42.684;23.252;2023-02-25T04:17:41;24.77;;;19.73;;
11338;SDS011;5724;42.684;23.252;2023-02-25T04:20:09;24.17;;;19.33;;
11338;SDS011;5724;42.684;23.252;2023-02-25T04:22:36;28.80;;;19.87;;
11338;SDS011;5724;42.684;23.252;2023-02-25T04:25:01;25.27;;;19.17;;
11338;SDS011;5724;42.684;23.252;2023-02-25T04:27:27;27.53;;;19.90;;
11338;SDS011;5724;42.684;23.252;2023-02-25T04:29:53;26.87;;;22.47;;
11338;SDS011;5724;42.684;23.252;2023-02-25T04:32:18;32.03;;;21.73;;
11338;SDS011;5724;42.684;23.252;2023-02-25T04:34:44;25.07;;;20.00;;
11338;SDS011;5724;42.684;23.252;2023-02-25T04:37:09;28.40;;;20.07;;
11338;SDS011;5724;42.684;23.252;2023-02-25T04:39:35;28.77;;;19.90;;
11338;SDS011;5724;42.684;23.252;2023-02-25T04:42:01;27.30;;;19.57;;
11338;SDS011;5724;42.684;23.252;2023-02-25T04:44:26;30.53;;;21.20;;
11338;SDS011;5724;42.684;23.252;2023-02-25T04:46:52;30.00;;;18.27;;
11338;SDS011;5724;42.684;23.252;2023-02-25T04:49:19;30.20;;;19.47;;
11338;SDS011;5724;42.684;23.252;2023-02-25T04:51:46;29.27;;;19.80;;
11338;SDS011;5724;42.684;23.252;2023-02-25T04:54:13;28.93;;;19.80;;
11338;SDS011;5724;42.684;23.252;2023-02-25T04:56:39;24.43;;;18.97;;
11338;SDS011;5724;42.684;23.252;2023-02-25T04:59:05;29.20;;;19.37;;
11338;SDS011;5724;42.684;23.252;2023-02-25T05:01:31;29.53;;;18.77;;
11338;SDS011;5724;42.684;23.252;2023-02-25T05:03:58;24.37;;;19.10;;
11338;SDS011;5724;42.684;23.252;2023-02-25T05:06:25;28.43;;;20.50;;
11338;SDS011;5724;42.684;23.252;2023-02-25T05:08:51;31.43;;;21.73;;
11338;SDS011;5724;42.684;23.252;2023-02-25T05:11:17;31.10;;;19.57;;
11338;SDS011;5724;42.684;23.252;2023-02-25T05:13:43;30.20;;;20.70;;
11338;SDS011;5724;42.684;23.252;2023-02-25T05:16:10;33.63;;;18.30;;
11338;SDS011;5724;42.684;23.252;2023-02-25T05:18:38;25.30;;;16.97;;
11338;SDS011;5724;42.684;23.252;2023-02-25T05:21:16;29.17;;;18.30;;
11338;SDS011;5724;42.684;23.252;2023-02-25T05:23:44;24.77;;;17.37;;
11338;SDS011;5724;42.684;23.252;2023-02-25T05:26:11;24.47;;;18.23;;
11338;SDS011;5724;42.684;23.252;2023-02-25T05:28:37;33.03;;;22.77;;
11338;SDS011;5724;42.684;23.252;2023-02-25T05:31:06;39.03;;;25.90;;
11338;SDS011;5724;42.684;23.252;2023-02-25T05:33:34;30.70;;;20.27;;
11338;SDS011;5724;42.684;23.252;2023-02-25T05:36:03;25.90;;;19.87;;
11338;SDS011;5724;42.684;23.252;2023-02-25T05:38:30;35.43;;;20.50;;
11338;SDS011;5724;42.684;23.252;2023-02-25T05:40:57;34.07;;;19.97;;
11338;SDS011;5724;42.684;23.252;2023-02-25T05:43:24;29.73;;;20.23;;
11338;SDS011;5724;42.684;23.252;2023-02-25T05:45:52;27.50;;;20.53;;
11338;SDS011;5724;42.684;23.252;2023-02-25T05:48:19;33.47;;;21.23;;
11338;SDS011;5724;42.684;23.252;2023-02-25T05:50:44;29.57;;;21.70;;
11338;SDS011;5724;42.684;23.252;2023-02-25T05:53:11;27.70;;;21.33;;
11338;SDS011;5724;42.684;23.252;2023-02-25T05:55:39;28.07;;;21.13;;
11338;SDS011;5724;42.684;23.252;2023-02-25T05:58:06;23.33;;;18.67;;
11338;SDS011;5724;42.684;23.252;2023-02-25T06:00:31;26.63;;;19.87;;
11338;SDS011;5724;42.684;23.252;2023-02-25T06:02:57;28.03;;;19.43;;
11338;SDS011;5724;42.684;23.252;2023-02-25T06:05:22;23.70;;;18.77;;
11338;SDS011;5724;42.684;23.252;2023-02-25T06:07:48;30.83;;;19.23;;
11338;SDS011;5724;42.684;23.252;2023-02-25T06:10:13;28.17;;;19.47;;
11338;SDS011;5724;42.684;23.252;2023-02-25T06:12:39;27.60;;;21.43;;
11338;SDS011;5724;42.684;23.252;2023-02-25T06:15:05;26.87;;;21.17;;
11338;SDS011;5724;42.684;23.252;2023-02-25T06:17:31;29.00;;;21.47;;
11338;SDS011;5724;42.684;23.252;2023-02-25T06:19:56;30.60;;;20.87;;
11338;SDS011;5724;42.684;23.252;2023-02-25T06:22:21;30.33;;;21.37;;
11338;SDS011;5724;42.684;23.252;2023-02-25T06:24:47;30.37;;;21.40;;
11338;SDS011;5724;42.684;23.252;2023-02-25T06:27:13;30.97;;;20.80;;
11338;SDS011;5724;42.684;23.252;2023-02-25T06:29:39;29.73;;;20.53;;
11338;SDS011;5724;42.684;23.252;2023-02-25T06:32:11;33.83;;;21.90;;
11338;SDS011;5724;42.684;23.252;2023-02-25T06:34:37;25.97;;;20.80;;
11338;SDS011;5724;42.684;23.252;2023-02-25T06:37:03;29.97;;;23.27;;
11338;SDS011;5724;42.684;23.252;2023-02-25T06:39:28;33.73;;;22.40;;
11338;SDS011;5724;42.684;23.252;2023-02-25T06:41:54;33.23;;;22.17;;
11338;SDS011;5724;42.684;23.252;2023-02-25T06:44:20;36.60;;;26.60;;
11338;SDS011;5724;42.684;23.252;2023-02-25T06:46:45;36.27;;;24.23;;
11338;SDS011;5724;42.684;23.252;2023-02-25T06:49:13;25.73;;;19.00;;
11338;SDS011;5724;42.684;23.252;2023-02-25T06:51:38;34.33;;;23.20;;
11338;SDS011;5724;42.684;23.252;2023-02-25T06:54:04;31.20;;;22.20;;
11338;SDS011;5724;42.684;23.252;2023-02-25T06:56:29;28.07;;;19.60;;
11338;SDS011;5724;42.684;23.252;2023-02-25T06:58:55;27.37;;;19.97;;
11338;SDS011;5724;42.684;23.252;2023-02-25T07:01:24;28.93;;;22.17;;
11338;SDS011;5724;42.684;23.252;2023-02-25T07:03:50;36.87;;;22.80;;
11338;SDS011;5724;42.684;23.252;2023-02-25T07:06:16;30.10;;;21.10;;
11338;SDS011;5724;42.684;23.252;2023-02-25T07:08:42;33.17;;;20.37;;
11338;SDS011;5724;42.684;23.252;2023-02-25T07:13:39;29.03;;;19.77;;
11338;SDS011;5724;42.684;23.252;2023-02-25T07:16:07;33.03;;;20.90;;
11338;SDS011;5724;42.684;23.252;2023-02-25T07:18:33;28.47;;;19.07;;
11338;SDS011;5724;42.684;23.252;2023-02-25T07:20:58;27.60;;;18.37;;
11338;SDS011;5724;42.684;23.252;2023-02-25T07:23:24;24.67;;;17.93;;
11338;SDS011;5724;42.684;23.252;2023-02-25T07:25:50;29.47;;;18.87;;
11338;SDS011;5724;42.684;23.252;2023-02-25T07:28:15;27.17;;;19.00;;
11338;SDS011;5724;42.684;23.252;2023-02-25T07:30:41;26.00;;;18.20;;
11338;SDS011;5724;42.684;23.252;2023-02-25T07:33:06;23.10;;;17.77;;
11338;SDS011;5724;42.684;23.252;2023-02-25T07:35:32;26.00;;;18.07;;
11338;SDS011;5724;42.684;23.252;2023-02-25T07:37:58;28.42;;;17.92;;
11338;SDS011;5724;42.684;23.252;2023-02-25T07:40:23;26.57;;;18.67;;
11338;SDS011;5724;42.684;23.252;2023-02-25T07:42:51;29.05;;;18.35;;
11338;SDS011;5724;42.684;23.252;2023-02-25T07:45:17;23.70;;;17.87;;
11338;SDS011;5724;42.684;23.252;2023-02-25T07:47:42;29.80;;;21.70;;
11338;SDS011;5724;42.684;23.252;2023-02-25T07:50:09;29.40;;;18.67;;
11338;SDS011;5724;42.684;23.252;2023-02-25T07:52:35;29.25;;;17.40;;
11338;SDS011;5724;42.684;23.252;2023-02-25T07:55:01;24.33;;;17.60;;
11338;SDS011;5724;42.684;23.252;2023-02-25T07:57:28;32.78;;;17.85;;
11338;SDS011;5724;42.684;23.252;2023-02-25T07:59:53;23.57;;;17.20;;
11338;SDS011;5724;42.684;23.252;2023-02-25T08:02:19;22.65;;;16.40;;
11338;SDS011;5724;42.684;23.252;2023-02-25T08:04:45;26.80;;;16.37;;
11338;SDS011;5724;42.684;23.252;2023-02-25T08:07:11;28.40;;;17.83;;
11338;SDS011;5724;42.684;23.252;2023-02-25T08:09:36;27.40;;;17.05;;
11338;SDS011;5724;42.684;23.252;2023-02-25T08:12:02;24.53;;;17.43;;
11338;SDS011;5724;42.684;23.252;2023-02-25T08:14:28;27.97;;;18.60;;
11338;SDS011;5724;42.684;23.252;2023-02-25T08:16:56;28.97;;;17.37;;
11338;SDS011;5724;42.684;23.252;2023-02-25T08:19:22;30.00;;;19.67;;
11338;SDS011;5724;42.684;23.252;2023-02-25T08:21:48;27.20;;;17.77;;
11338;SDS011;5724;42.684;23.252;2023-02-25T08:24:13;26.95;;;18.23;;
11338;SDS011;5724;42.684;23.252;2023-02-25T08:26:39;23.48;;;15.80;;
11338;SDS011;5724;42.684;23.252;2023-02-25T08:29:05;28.15;;;16.63;;
11338;SDS011;5724;42.684;23.252;2023-02-25T08:31:31;22.83;;;16.05;;
11338;SDS011;5724;42.684;23.252;2023-02-25T08:33:57;28.38;;;16.35;;
11338;SDS011;5724;42.684;23.252;2023-02-25T08:36:25;24.58;;;15.13;;
11338;SDS011;5724;42.684;23.252;2023-02-25T08:38:55;34.28;;;18.40;;
11338;SDS011;5724;42.684;23.252;2023-02-25T08:41:23;32.15;;;17.88;;
11338;SDS011;5724;42.684;23.252;2023-02-25T08:43:50;31.17;;;15.88;;
11338;SDS011;5724;42.684;23.252;2023-02-25T08:46:18;30.95;;;18.10;;
11338;SDS011;5724;42.684;23.252;2023-02-25T08:48:47;36.28;;;17.40;;
11338;SDS011;5724;42.684;23.252;2023-02-25T08:51:16;35.47;;;18.27;;
11338;SDS011;5724;42.684;23.252;2023-02-25T08:53:42;31.85;;;19.13;;
11338;SDS011;5724;42.684;23.252;2023-02-25T08:56:09;34.30;;;18.88;;
11338;SDS011;5724;42.684;23.252;2023-02-25T08:58:36;35.17;;;18.52;;
11338;SDS011;5724;42.684;23.252;2023-02-25T09:01:06;31.27;;;18.50;;
11338;SDS011;5724;42.684;23.252;2023-02-25T09:03:33;32.00;;;19.98;;
11338;SDS011;5724;42.684;23.252;2023-02-25T09:05:59;38.08;;;20.23;;
11338;SDS011;5724;42.684;23.252;2023-02-25T09:08:25;32.95;;;20.52;;
11338;SDS011;5724;42.684;23.252;2023-02-25T09:10:52;32.95;;;19.45;;
11338;SDS011;5724;42.684;23.252;2023-02-25T09:13:18;36.47;;;20.27;;
11338;SDS011;5724;42.684;23.252;2023-02-25T09:15:43;41.78;;;21.35;;
11338;SDS011;5724;42.684;23.252;2023-02-25T09:18:09;38.15;;;21.45;;
11338;SDS011;5724;42.684;23.252;2023-02-25T09:20:35;34.47;;;20.25;;
11338;SDS011;5724;42.684;23.252;2023-02-25T09:23:01;37.70;;;19.48;;
11338;SDS011;5724;42.684;23.252;2023-02-25T09:25:27;35.40;;;19.52;;
11338;SDS011;5724;42.684;23.252;2023-02-25T09:27:53;34.47;;;19.80;;
11338;SDS011;5724;42.684;23.252;2023-02-25T09:30:19;32.78;;;17.55;;
11338;SDS011;5724;42.684;23.252;2023-02-25T09:32:44;29.88;;;18.20;;
11338;SDS011;5724;42.684;23.252;2023-02-25T09:35:10;32.90;;;18.35;;
11338;SDS011;5724;42.684;23.252;2023-02-25T09:37:36;34.33;;;18.13;;
11338;SDS011;5724;42.684;23.252;2023-02-25T09:40:02;27.40;;;17.27;;
11338;SDS011;5724;42.684;23.252;2023-02-25T09:42:38;33.60;;;20.00;;
11338;SDS011;5724;42.684;23.252;2023-02-25T09:45:22;33.05;;;19.95;;
11338;SDS011;5724;42.684;23.252;2023-02-25T09:50:47;28.10;;;18.30;;
11338;SDS011;5724;42.684;23.252;2023-02-25T09:53:24;38.08;;;19.08;;
11338;SDS011;5724;42.684;23.252;2023-02-25T09:55:55;34.55;;;18.00;;
11338;SDS011;5724;42.684;23.252;2023-02-25T09:58:38;33.72;;;17.90;;
11338;SDS011;5724;42.684;23.252;2023-02-25T10:06:42;40.22;;;21.05;;
11338;SDS011;5724;42.684;23.252;2023-02-25T10:17:59;17.33;;;7.15;;
11338;SDS011;5724;42.684;23.252;2023-02-25T10:26:14;17.38;;;6.25;;
11338;SDS011;5724;42.684;23.252;2023-02-25T10:28:45;9.88;;;5.32;;
11338;SDS011;5724;42.684;23.252;2023-02-25T10:31:15;21.17;;;4.80;;
11338;SDS011;5724;42.684;23.252;2023-02-25T10:33:44;17.42;;;5.00;;
11338;SDS011;5724;42.684;23.252;2023-02-25T10:36:16;12.43;;;4.95;;
11338;SDS011;5724;42.684;23.252;2023-02-25T10:38:45;17.50;;;5.60;;
11338;SDS011;5724;42.684;23.252;2023-02-25T10:41:13;13.43;;;4.85;;
11338;SDS011;5724;42.684;23.252;2023-02-25T10:43:40;15.40;;;4.75;;
11338;SDS011;5724;42.684;23.252;2023-02-25T10:46:09;17.98;;;5.32;;
11338;SDS011;5724;42.684;23.252;2023-02-25T10:48:39;17.67;;;4.90;;
11338;SDS011;5724;42.684;23.252;2023-02-25T10:51:11;23.95;;;5.78;;
11338;SDS011;5724;42.684;23.252;2023-02-25T10:54:00;16.08;;;4.78;;
11338;SDS011;5724;42.684;23.252;2023-02-25T10:56:47;15.35;;;4.93;;
11338;SDS011;5724;42.684;23.252;2023-02-25T10:59:24;15.40;;;5.05;;
11338;SDS011;5724;42.684;23.252;2023-02-25T11:01:54;11.02;;;5.30;;
11338;SDS011;5724;42.684;23.252;2023-02-25T11:04:27;20.40;;;5.95;;
11338;SDS011;5724;42.684;23.252;2023-02-25T11:07:21;16.63;;;5.47;;
11338;SDS011;5724;42.684;23.252;2023-02-25T11:10:05;21.95;;;5.78;;
11338;SDS011;5724;42.684;23.252;2023-02-25T11:12:44;22.27;;;5.80;;
11338;SDS011;5724;42.684;23.252;2023-02-25T11:17:52;16.45;;;5.60;;
11338;SDS011;5724;42.684;23.252;2023-02-25T11:20:26;17.58;;;5.63;;
11338;SDS011;5724;42.684;23.252;2023-02-25T11:22:54;23.02;;;6.07;;
11338;SDS011;5724;42.684;23.252;2023-02-25T11:29:00;17.33;;;4.97;;
11338;SDS011;5724;42.684;23.252;2023-02-25T11:31:15;16.33;;;4.88;;
11338;SDS011;5724;42.684;23.252;2023-02-25T11:33:54;10.63;;;5.20;;
11338;SDS011;5724;42.684;23.252;2023-02-25T11:36:24;18.02;;;5.63;;
11338;SDS011;5724;42.684;23.252;2023-02-25T11:41:40;17.45;;;4.95;;
11338;SDS011;5724;42.684;23.252;2023-02-25T11:44:10;16.50;;;5.97;;
11338;SDS011;5724;42.684;23.252;2023-02-25T11:46:45;13.93;;;5.07;;
11338;SDS011;5724;42.684;23.252;2023-02-25T11:49:33;15.82;;;5.45;;
11338;SDS011;5724;42.684;23.252;2023-02-25T11:57:40;11.77;;;5.22;;
11338;SDS011;5724;42.684;23.252;2023-02-25T12:32:58;8.93;;;5.28;;
11338;SDS011;5724;42.684;23.252;2023-02-25T12:35:42;13.77;;;5.35;;
11338;SDS011;5724;42.684;23.252;2023-02-25T13:12:04;15.90;;;5.65;;
11338;SDS011;5724;42.684;23.252;2023-02-25T13:20:23;12.02;;;5.60;;
11338;SDS011;5724;42.684;23.252;2023-02-25T13:28:31;13.25;;;5.95;;
11338;SDS011;5724;42.684;23.252;2023-02-25T13:31:07;13.07;;;5.82;;
11338;SDS011;5724;42.684;23.252;2023-02-25T13:39:24;11.07;;;5.35;;
11338;SDS011;5724;42.684;23.252;2023-02-25T14:01:59;15.70;;;5.25;;
11338;SDS011;5724;42.684;23.252;2023-02-25T14:07:32;18.00;;;5.07;;
11338;SDS011;5724;42.684;23.252;2023-02-25T14:10:28;17.83;;;6.13;;
11338;SDS011;5724;42.684;23.252;2023-02-25T14:16:11;11.57;;;5.43;;
11338;SDS011;5724;42.684;23.252;2023-02-25T14:21:48;14.68;;;4.85;;
11338;SDS011;5724;42.684;23.252;2023-02-25T14:24:37;14.82;;;5.53;;
11338;SDS011;5724;42.684;23.252;2023-02-25T14:30:08;15.55;;;5.50;;
11338;SDS011;5724;42.684;23.252;2023-02-25T14:44:00;13.02;;;6.05;;
11338;SDS011;5724;42.684;23.252;2023-02-25T14:46:32;11.95;;;5.75;;
11338;SDS011;5724;42.684;23.252;2023-02-25T14:58:37;13.15;;;5.70;;
11338;SDS011;5724;42.684;23.252;2023-02-25T15:06:53;15.32;;;5.13;;
11338;SDS011;5724;42.684;23.252;2023-02-25T15:09:37;14.50;;;5.03;;
11338;SDS011;5724;42.684;23.252;2023-02-25T15:19:04;11.88;;;5.75;;
11338;SDS011;5724;42.684;23.252;2023-02-25T15:24:03;15.43;;;6.13;;
11338;SDS011;5724;42.684;23.252;2023-02-25T15:26:45;16.90;;;6.10;;
11338;SDS011;5724;42.684;23.252;2023-02-25T15:37:35;19.50;;;5.82;;
11338;SDS011;5724;42.684;23.252;2023-02-25T15:48:40;14.55;;;6.13;;
11338;SDS011;5724;42.684;23.252;2023-02-25T15:55:45;13.00;;;5.80;;
11338;SDS011;5724;42.684;23.252;2023-02-25T16:00:48;11.18;;;4.85;;
11338;SDS011;5724;42.684;23.252;2023-02-25T16:06:00;10.93;;;5.30;;
11338;SDS011;5724;42.684;23.252;2023-02-25T16:11:42;15.05;;;5.88;;
11338;SDS011;5724;42.684;23.252;2023-02-25T16:14:32;16.85;;;4.93;;
11338;SDS011;5724;42.684;23.252;2023-02-25T16:17:43;17.95;;;6.70;;
11338;SDS011;5724;42.684;23.252;2023-02-25T16:19:54;13.38;;;5.50;;
11338;SDS011;5724;42.684;23.252;2023-02-25T16:22:25;12.95;;;5.10;;
11338;SDS011;5724;42.684;23.252;2023-02-25T16:24:53;12.07;;;5.40;;
11338;SDS011;5724;42.684;23.252;2023-02-25T16:30:11;14.73;;;5.47;;
11338;SDS011;5724;42.684;23.252;2023-02-25T16:35:11;14.88;;;5.85;;
11338;SDS011;5724;42.684;23.252;2023-02-25T16:40:16;19.30;;;6.90;;
11338;SDS011;5724;42.684;23.252;2023-02-25T16:42:56;9.77;;;5.55;;
11338;SDS011;5724;42.684;23.252;2023-02-25T16:45:32;11.20;;;5.82;;
11338;SDS011;5724;42.684;23.252;2023-02-25T16:48:06;15.60;;;5.47;;
11338;SDS011;5724;42.684;23.252;2023-02-25T16:50:38;15.38;;;5.72;;
11338;SDS011;5724;42.684;23.252;2023-02-25T16:53:04;13.13;;;5.60;;
11338;SDS011;5724;42.684;23.252;2023-02-25T16:55:34;14.48;;;6.13;;
11338;SDS011;5724;42.684;23.252;2023-02-25T17:00:54;11.18;;;5.15;;
11338;SDS011;5724;42.684;23.252;2023-02-25T17:03:23;14.57;;;5.38;;
11338;SDS011;5724;42.684;23.252;2023-02-25T17:06:05;15.93;;;5.57;;
11338;SDS011;5724;42.684;23.252;2023-02-25T17:08:35;12.27;;;6.10;;
11338;SDS011;5724;42.684;23.252;2023-02-25T17:11:01;12.65;;;5.72;;
11338;SDS011;5724;42.684;23.252;2023-02-25T17:13:35;14.05;;;4.60;;
11338;SDS011;5724;42.684;23.252;2023-02-25T17:16:04;15.15;;;6.15;;
11338;SDS011;5724;42.684;23.252;2023-02-25T17:18:42;12.93;;;5.78;;
11338;SDS011;5724;42.684;23.252;2023-02-25T17:21:22;15.07;;;5.88;;
11338;SDS011;5724;42.684;23.252;2023-02-25T17:23:50;20.75;;;6.65;;
11338;SDS011;5724;42.684;23.252;2023-02-25T17:26:17;12.65;;;5.68;;
11338;SDS011;5724;42.684;23.252;2023-02-25T17:28:45;13.60;;;5.97;;
11338;SDS011;5724;42.684;23.252;2023-02-25T17:31:14;10.35;;;5.10;;
11338;SDS011;5724;42.684;23.252;2023-02-25T17:33:49;13.13;;;5.85;;
11338;SDS011;5724;42.684;23.252;2023-02-25T17:36:32;17.35;;;5.95;;
11338;SDS011;5724;42.684;23.252;2023-02-25T17:39:15;14.40;;;6.13;;
11338;SDS011;5724;42.684;23.252;2023-02-25T17:41:43;14.35;;;5.68;;
11338;SDS011;5724;42.684;23.252;2023-02-25T17:44:10;13.23;;;5.82;;
11338;SDS011;5724;42.684;23.252;2023-02-25T17:46:56;13.98;;;5.75;;
11338;SDS011;5724;42.684;23.252;2023-02-25T17:49:29;18.63;;;6.43;;
11338;SDS011;5724;42.684;23.252;2023-02-25T17:52:07;14.50;;;6.05;;
11338;SDS011;5724;42.684;23.252;2023-02-25T17:54:44;9.15;;;5.55;;
11338;SDS011;5724;42.684;23.252;2023-02-25T17:57:19;12.80;;;5.43;;
11338;SDS011;5724;42.684;23.252;2023-02-25T17:59:51;12.90;;;5.78;;
11338;SDS011;5724;42.684;23.252;2023-02-25T18:02:39;10.73;;;5.68;;
11338;SDS011;5724;42.684;23.252;2023-02-25T18:07:36;15.40;;;6.72;;
11338;SDS011;5724;42.684;23.252;2023-02-25T18:12:47;15.52;;;6.28;;
11338;SDS011;5724;42.684;23.252;2023-02-25T18:15:15;21.45;;;6.20;;
11338;SDS011;5724;42.684;23.252;2023-02-25T18:17:48;16.17;;;5.85;;
11338;SDS011;5724;42.684;23.252;2023-02-25T18:20:27;20.15;;;6.43;;
11338;SDS011;5724;42.684;23.252;2023-02-25T18:22:59;14.05;;;6.45;;
11338;SDS011;5724;42.684;23.252;2023-02-25T18:25:30;16.02;;;6.13;;
11338;SDS011;5724;42.684;23.252;2023-02-25T18:27:56;10.85;;;5.63;;
11338;SDS011;5724;42.684;23.252;2023-02-25T18:30:22;13.75;;;6.47;;
11338;SDS011;5724;42.684;23.252;2023-02-25T18:32:50;16.95;;;7.05;;
11338;SDS011;5724;42.684;23.252;2023-02-25T18:35:17;13.18;;;6.28;;
11338;SDS011;5724;42.684;23.252;2023-02-25T18:37:44;13.32;;;6.15;;
11338;SDS011;5724;42.684;23.252;2023-02-25T18:40:16;9.98;;;6.18;;
11338;SDS011;5724;42.684;23.252;2023-02-25T18:42:45;14.52;;;6.63;;
11338;SDS011;5724;42.684;23.252;2023-02-25T18:45:15;15.68;;;6.13;;
11338;SDS011;5724;42.684;23.252;2023-02-25T18:47:45;14.80;;;7.20;;
11338;SDS011;5724;42.684;23.252;2023-02-25T18:50:11;12.77;;;5.97;;
11338;SDS011;5724;42.684;23.252;2023-02-25T18:52:36;12.25;;;5.97;;
11338;SDS011;5724;42.684;23.252;2023-02-25T18:55:03;10.65;;;6.32;;
11338;SDS011;5724;42.684;23.252;2023-02-25T18:57:33;13.25;;;6.20;;
11338;SDS011;5724;42.684;23.252;2023-02-25T18:59:58;19.05;;;7.07;;
11338;SDS011;5724;42.684;23.252;2023-02-25T19:05:13;19.40;;;6.30;;
11338;SDS011;5724;42.684;23.252;2023-02-25T19:07:40;12.57;;;5.65;;
11338;SDS011;5724;42.684;23.252;2023-02-25T19:10:07;10.80;;;5.32;;